sensor_id;sensor_type;location;lat;lon;timestamp;P1;durP1;ratioP1;P2;durP2;ratioP2
18206;SDS011;9229;52.354;20.886;2023-08-20T00:04:27;25.17;;;18.45;;
18206;SDS011;9229;52.354;20.886;2023-08-20T00:09:31;30.27;;;20.83;;
18206;SDS011;9229;52.354;20.886;2023-08-20T00:14:53;41.47;;;25.75;;
18206;SDS011;9229;52.354;20.886;2023-08-20T00:20:05;35.17;;;22.17;;
18206;SDS011;9229;52.354;20.886;2023-08-20T00:25:11;30.08;;;22.00;;
18206;SDS011;9229;52.354;20.886;2023-08-20T00:30:15;29.92;;;21.80;;
18206;SDS011;9229;52.354;20.886;2023-08-20T00:35:17;28.15;;;21.02;;
18206;SDS011;9229;52.354;20.886;2023-08-20T00:40:19;24.52;;;17.67;;
18206;SDS011;9229;52.354;20.886;2023-08-20T00:45:23;20.80;;;15.48;;
18206;SDS011;9229;52.354;20.886;2023-08-20T00:50:25;20.83;;;15.15;;
18206;SDS011;9229;52.354;20.886;2023-08-20T00:55:29;18.02;;;15.32;;
18206;SDS011;9229;52.354;20.886;2023-08-20T01:00:33;16.08;;;14.38;;
18206;SDS011;9229;52.354;20.886;2023-08-20T01:05:37;23.15;;;18.13;;
18206;SDS011;9229;52.354;20.886;2023-08-20T01:10:50;26.65;;;20.35;;
18206;SDS011;9229;52.354;20.886;2023-08-20T01:15:59;27.08;;;21.48;;
18206;SDS011;9229;52.354;20.886;2023-08-20T01:21:02;32.13;;;20.73;;
18206;SDS011;9229;52.354;20.886;2023-08-20T01:26:30;26.38;;;19.00;;
18206;SDS011;9229;52.354;20.886;2023-08-20T01:31:42;28.90;;;20.42;;
18206;SDS011;9229;52.354;20.886;2023-08-20T01:36:46;18.35;;;15.95;;
18206;SDS011;9229;52.354;20.886;2023-08-20T01:41:48;27.50;;;20.42;;
18206;SDS011;9229;52.354;20.886;2023-08-20T01:46:51;29.23;;;21.83;;
18206;SDS011;9229;52.354;20.886;2023-08-20T01:51:54;25.67;;;19.00;;
18206;SDS011;9229;52.354;20.886;2023-08-20T01:56:56;26.83;;;20.23;;
18206;SDS011;9229;52.354;20.886;2023-08-20T02:01:59;16.88;;;12.40;;
18206;SDS011;9229;52.354;20.886;2023-08-20T02:07:01;19.38;;;15.75;;
18206;SDS011;9229;52.354;20.886;2023-08-20T02:12:03;16.77;;;14.98;;
18206;SDS011;9229;52.354;20.886;2023-08-20T02:17:08;19.45;;;16.05;;
18206;SDS011;9229;52.354;20.886;2023-08-20T02:22:12;18.13;;;16.20;;
18206;SDS011;9229;52.354;20.886;2023-08-20T02:27:14;21.20;;;16.55;;
18206;SDS011;9229;52.354;20.886;2023-08-20T02:32:21;17.92;;;15.95;;
18206;SDS011;9229;52.354;20.886;2023-08-20T02:37:24;23.55;;;18.48;;
18206;SDS011;9229;52.354;20.886;2023-08-20T02:42:26;22.77;;;18.60;;
18206;SDS011;9229;52.354;20.886;2023-08-20T02:47:30;26.80;;;18.08;;
18206;SDS011;9229;52.354;20.886;2023-08-20T02:52:32;22.98;;;18.20;;
18206;SDS011;9229;52.354;20.886;2023-08-20T02:57:34;19.92;;;16.52;;
18206;SDS011;9229;52.354;20.886;2023-08-20T03:02:38;20.67;;;17.70;;
18206;SDS011;9229;52.354;20.886;2023-08-20T03:07:44;21.27;;;17.50;;
18206;SDS011;9229;52.354;20.886;2023-08-20T03:12:47;21.70;;;16.98;;
18206;SDS011;9229;52.354;20.886;2023-08-20T03:17:50;21.38;;;17.17;;
18206;SDS011;9229;52.354;20.886;2023-08-20T03:22:52;20.95;;;17.52;;
18206;SDS011;9229;52.354;20.886;2023-08-20T03:27:54;21.67;;;17.55;;
18206;SDS011;9229;52.354;20.886;2023-08-20T03:32:58;20.20;;;17.60;;
18206;SDS011;9229;52.354;20.886;2023-08-20T03:38:00;18.75;;;15.15;;
18206;SDS011;9229;52.354;20.886;2023-08-20T03:43:03;20.15;;;17.20;;
18206;SDS011;9229;52.354;20.886;2023-08-20T03:48:07;21.33;;;16.90;;
18206;SDS011;9229;52.354;20.886;2023-08-20T03:53:09;23.15;;;17.85;;
18206;SDS011;9229;52.354;20.886;2023-08-20T03:58:11;24.02;;;17.67;;
18206;SDS011;9229;52.354;20.886;2023-08-20T04:03:17;25.30;;;17.95;;
18206;SDS011;9229;52.354;20.886;2023-08-20T04:08:19;21.25;;;17.38;;
18206;SDS011;9229;52.354;20.886;2023-08-20T04:13:21;16.10;;;14.40;;
18206;SDS011;9229;52.354;20.886;2023-08-20T04:18:25;19.55;;;15.05;;
18206;SDS011;9229;52.354;20.886;2023-08-20T04:23:29;24.20;;;17.15;;
18206;SDS011;9229;52.354;20.886;2023-08-20T04:28:31;22.95;;;18.48;;
18206;SDS011;9229;52.354;20.886;2023-08-20T04:33:36;24.40;;;19.65;;
18206;SDS011;9229;52.354;20.886;2023-08-20T04:38:38;22.85;;;19.05;;
18206;SDS011;9229;52.354;20.886;2023-08-20T04:43:40;26.92;;;20.63;;
18206;SDS011;9229;52.354;20.886;2023-08-20T04:48:44;28.88;;;21.38;;
18206;SDS011;9229;52.354;20.886;2023-08-20T04:53:46;30.85;;;22.67;;
18206;SDS011;9229;52.354;20.886;2023-08-20T04:58:48;29.38;;;22.83;;
18206;SDS011;9229;52.354;20.886;2023-08-20T05:04:12;33.10;;;24.10;;
18206;SDS011;9229;52.354;20.886;2023-08-20T05:09:15;34.45;;;24.67;;
18206;SDS011;9229;52.354;20.886;2023-08-20T05:14:19;33.63;;;25.35;;
18206;SDS011;9229;52.354;20.886;2023-08-20T05:19:24;33.05;;;24.65;;
18206;SDS011;9229;52.354;20.886;2023-08-20T05:24:27;32.45;;;25.42;;
18206;SDS011;9229;52.354;20.886;2023-08-20T05:29:30;39.28;;;27.17;;
18206;SDS011;9229;52.354;20.886;2023-08-20T05:34:36;42.55;;;26.75;;
18206;SDS011;9229;52.354;20.886;2023-08-20T05:39:40;35.10;;;26.13;;
18206;SDS011;9229;52.354;20.886;2023-08-20T05:44:43;36.00;;;26.65;;
18206;SDS011;9229;52.354;20.886;2023-08-20T05:49:51;36.60;;;27.27;;
18206;SDS011;9229;52.354;20.886;2023-08-20T05:54:54;36.05;;;26.40;;
18206;SDS011;9229;52.354;20.886;2023-08-20T05:59:57;35.22;;;26.52;;
18206;SDS011;9229;52.354;20.886;2023-08-20T06:05:01;39.75;;;28.88;;
18206;SDS011;9229;52.354;20.886;2023-08-20T06:10:06;41.90;;;28.00;;
18206;SDS011;9229;52.354;20.886;2023-08-20T06:15:09;38.28;;;29.95;;
18206;SDS011;9229;52.354;20.886;2023-08-20T06:20:13;36.25;;;28.02;;
18206;SDS011;9229;52.354;20.886;2023-08-20T06:25:17;33.97;;;25.63;;
18206;SDS011;9229;52.354;20.886;2023-08-20T06:30:19;31.02;;;24.25;;
18206;SDS011;9229;52.354;20.886;2023-08-20T06:35:22;34.22;;;24.90;;
18206;SDS011;9229;52.354;20.886;2023-08-20T06:40:24;29.95;;;23.05;;
18206;SDS011;9229;52.354;20.886;2023-08-20T06:45:29;31.85;;;21.80;;
18206;SDS011;9229;52.354;20.886;2023-08-20T06:50:33;24.88;;;21.38;;
18206;SDS011;9229;52.354;20.886;2023-08-20T06:55:36;24.65;;;20.33;;
18206;SDS011;9229;52.354;20.886;2023-08-20T07:00:38;22.95;;;20.45;;
18206;SDS011;9229;52.354;20.886;2023-08-20T07:05:41;22.48;;;19.75;;
18206;SDS011;9229;52.354;20.886;2023-08-20T07:10:44;20.25;;;18.02;;
18206;SDS011;9229;52.354;20.886;2023-08-20T07:15:46;26.02;;;18.00;;
18206;SDS011;9229;52.354;20.886;2023-08-20T07:20:50;22.88;;;17.75;;
18206;SDS011;9229;52.354;20.886;2023-08-20T07:26:03;19.65;;;16.63;;
18206;SDS011;9229;52.354;20.886;2023-08-20T07:31:07;19.25;;;16.58;;
18206;SDS011;9229;52.354;20.886;2023-08-20T07:36:11;20.52;;;15.85;;
18206;SDS011;9229;52.354;20.886;2023-08-20T07:41:14;19.77;;;15.07;;
18206;SDS011;9229;52.354;20.886;2023-08-20T07:46:16;21.35;;;14.90;;
18206;SDS011;9229;52.354;20.886;2023-08-20T07:51:20;17.23;;;13.50;;
18206;SDS011;9229;52.354;20.886;2023-08-20T07:56:22;16.20;;;13.68;;
18206;SDS011;9229;52.354;20.886;2023-08-20T08:01:25;15.35;;;13.85;;
18206;SDS011;9229;52.354;20.886;2023-08-20T08:06:28;17.60;;;14.13;;
18206;SDS011;9229;52.354;20.886;2023-08-20T08:11:30;12.32;;;11.02;;
18206;SDS011;9229;52.354;20.886;2023-08-20T08:16:33;13.07;;;11.73;;
18206;SDS011;9229;52.354;20.886;2023-08-20T08:21:36;13.18;;;11.88;;
18206;SDS011;9229;52.354;20.886;2023-08-20T08:26:38;13.10;;;11.88;;
18206;SDS011;9229;52.354;20.886;2023-08-20T08:31:40;17.00;;;12.70;;
18206;SDS011;9229;52.354;20.886;2023-08-20T08:36:43;13.35;;;11.95;;
18206;SDS011;9229;52.354;20.886;2023-08-20T08:41:46;11.80;;;10.60;;
18206;SDS011;9229;52.354;20.886;2023-08-20T08:46:52;11.75;;;10.55;;
18206;SDS011;9229;52.354;20.886;2023-08-20T08:51:55;12.75;;;10.90;;
18206;SDS011;9229;52.354;20.886;2023-08-20T08:56:58;11.27;;;10.30;;
18206;SDS011;9229;52.354;20.886;2023-08-20T09:02:00;9.80;;;8.90;;
18206;SDS011;9229;52.354;20.886;2023-08-20T09:07:03;10.63;;;9.73;;
18206;SDS011;9229;52.354;20.886;2023-08-20T09:12:12;15.90;;;9.75;;
18206;SDS011;9229;52.354;20.886;2023-08-20T09:17:14;10.93;;;9.80;;
18206;SDS011;9229;52.354;20.886;2023-08-20T09:22:18;9.23;;;8.45;;
18206;SDS011;9229;52.354;20.886;2023-08-20T09:27:21;10.00;;;9.07;;
18206;SDS011;9229;52.354;20.886;2023-08-20T09:32:24;11.93;;;9.10;;
18206;SDS011;9229;52.354;20.886;2023-08-20T09:37:28;10.30;;;9.07;;
18206;SDS011;9229;52.354;20.886;2023-08-20T09:42:31;9.88;;;8.80;;
18206;SDS011;9229;52.354;20.886;2023-08-20T09:47:35;9.27;;;8.57;;
18206;SDS011;9229;52.354;20.886;2023-08-20T09:52:43;8.23;;;7.53;;
18206;SDS011;9229;52.354;20.886;2023-08-20T09:57:50;9.50;;;8.60;;
18206;SDS011;9229;52.354;20.886;2023-08-20T10:02:54;10.57;;;8.02;;
18206;SDS011;9229;52.354;20.886;2023-08-20T10:07:57;8.55;;;7.78;;
18206;SDS011;9229;52.354;20.886;2023-08-20T10:13:03;8.80;;;8.18;;
18206;SDS011;9229;52.354;20.886;2023-08-20T10:18:09;8.52;;;7.55;;
18206;SDS011;9229;52.354;20.886;2023-08-20T10:23:13;10.27;;;9.00;;
18206;SDS011;9229;52.354;20.886;2023-08-20T10:28:19;9.35;;;8.40;;
18206;SDS011;9229;52.354;20.886;2023-08-20T10:33:22;8.95;;;8.32;;
18206;SDS011;9229;52.354;20.886;2023-08-20T10:38:25;9.02;;;8.23;;
18206;SDS011;9229;52.354;20.886;2023-08-20T10:43:37;10.15;;;9.30;;
18206;SDS011;9229;52.354;20.886;2023-08-20T10:48:39;12.55;;;10.38;;
18206;SDS011;9229;52.354;20.886;2023-08-20T10:53:48;10.80;;;9.70;;
18206;SDS011;9229;52.354;20.886;2023-08-20T10:59:05;9.80;;;9.00;;
18206;SDS011;9229;52.354;20.886;2023-08-20T11:04:08;11.15;;;10.25;;
18206;SDS011;9229;52.354;20.886;2023-08-20T11:09:12;9.32;;;8.65;;
18206;SDS011;9229;52.354;20.886;2023-08-20T11:14:17;10.55;;;9.57;;
18206;SDS011;9229;52.354;20.886;2023-08-20T11:19:21;11.57;;;10.52;;
18206;SDS011;9229;52.354;20.886;2023-08-20T11:24:27;12.75;;;10.98;;
18206;SDS011;9229;52.354;20.886;2023-08-20T11:29:30;14.75;;;10.43;;
18206;SDS011;9229;52.354;20.886;2023-08-20T11:34:32;11.32;;;10.23;;
18206;SDS011;9229;52.354;20.886;2023-08-20T11:39:37;12.70;;;10.77;;
18206;SDS011;9229;52.354;20.886;2023-08-20T11:44:42;11.48;;;10.45;;
18206;SDS011;9229;52.354;20.886;2023-08-20T11:49:45;10.98;;;10.07;;
18206;SDS011;9229;52.354;20.886;2023-08-20T11:54:49;15.68;;;10.32;;
18206;SDS011;9229;52.354;20.886;2023-08-20T11:59:51;10.88;;;9.77;;
18206;SDS011;9229;52.354;20.886;2023-08-20T12:04:57;10.43;;;9.43;;
18206;SDS011;9229;52.354;20.886;2023-08-20T12:10:06;12.70;;;9.43;;
18206;SDS011;9229;52.354;20.886;2023-08-20T12:15:21;9.95;;;8.68;;
18206;SDS011;9229;52.354;20.886;2023-08-20T12:20:23;10.15;;;9.10;;
18206;SDS011;9229;52.354;20.886;2023-08-20T12:25:30;9.40;;;8.70;;
18206;SDS011;9229;52.354;20.886;2023-08-20T12:30:33;13.50;;;9.18;;
18206;SDS011;9229;52.354;20.886;2023-08-20T12:35:36;9.80;;;9.00;;
18206;SDS011;9229;52.354;20.886;2023-08-20T12:40:40;10.05;;;9.13;;
18206;SDS011;9229;52.354;20.886;2023-08-20T12:45:42;9.00;;;8.32;;
18206;SDS011;9229;52.354;20.886;2023-08-20T12:50:44;10.43;;;9.52;;
18206;SDS011;9229;52.354;20.886;2023-08-20T12:55:47;11.40;;;10.32;;
18206;SDS011;9229;52.354;20.886;2023-08-20T13:00:49;11.23;;;9.98;;
18206;SDS011;9229;52.354;20.886;2023-08-20T13:05:52;10.55;;;9.65;;
18206;SDS011;9229;52.354;20.886;2023-08-20T13:10:57;9.50;;;8.65;;
18206;SDS011;9229;52.354;20.886;2023-08-20T13:16:00;9.15;;;8.43;;
18206;SDS011;9229;52.354;20.886;2023-08-20T13:21:03;10.25;;;9.35;;
18206;SDS011;9229;52.354;20.886;2023-08-20T13:26:07;10.30;;;9.20;;
18206;SDS011;9229;52.354;20.886;2023-08-20T13:31:09;9.95;;;9.15;;
18206;SDS011;9229;52.354;20.886;2023-08-20T13:36:11;9.27;;;8.57;;
18206;SDS011;9229;52.354;20.886;2023-08-20T13:41:15;9.80;;;8.77;;
18206;SDS011;9229;52.354;20.886;2023-08-20T13:46:17;9.57;;;8.82;;
18206;SDS011;9229;52.354;20.886;2023-08-20T13:51:19;10.95;;;9.88;;
18206;SDS011;9229;52.354;20.886;2023-08-20T13:56:23;10.25;;;9.43;;
18206;SDS011;9229;52.354;20.886;2023-08-20T14:01:25;11.45;;;10.20;;
18206;SDS011;9229;52.354;20.886;2023-08-20T14:06:28;11.38;;;10.32;;
18206;SDS011;9229;52.354;20.886;2023-08-20T14:11:31;11.57;;;10.27;;
18206;SDS011;9229;52.354;20.886;2023-08-20T14:16:34;13.32;;;11.95;;
18206;SDS011;9229;52.354;20.886;2023-08-20T14:21:36;13.43;;;11.52;;
18206;SDS011;9229;52.354;20.886;2023-08-20T14:26:40;12.70;;;11.50;;
18206;SDS011;9229;52.354;20.886;2023-08-20T14:31:42;11.82;;;10.80;;
18206;SDS011;9229;52.354;20.886;2023-08-20T14:36:44;11.88;;;10.82;;
18206;SDS011;9229;52.354;20.886;2023-08-20T14:41:48;12.07;;;10.88;;
18206;SDS011;9229;52.354;20.886;2023-08-20T14:46:50;12.73;;;11.48;;
18206;SDS011;9229;52.354;20.886;2023-08-20T14:51:52;13.70;;;12.32;;
18206;SDS011;9229;52.354;20.886;2023-08-20T14:56:55;14.02;;;12.60;;
18206;SDS011;9229;52.354;20.886;2023-08-20T15:01:57;13.27;;;11.93;;
18206;SDS011;9229;52.354;20.886;2023-08-20T15:06:59;13.77;;;11.82;;
18206;SDS011;9229;52.354;20.886;2023-08-20T15:12:02;18.25;;;11.70;;
18206;SDS011;9229;52.354;20.886;2023-08-20T15:17:05;12.48;;;11.40;;
18206;SDS011;9229;52.354;20.886;2023-08-20T15:22:07;11.75;;;10.77;;
18206;SDS011;9229;52.354;20.886;2023-08-20T15:27:12;12.13;;;11.00;;
18206;SDS011;9229;52.354;20.886;2023-08-20T15:32:14;11.60;;;10.50;;
18206;SDS011;9229;52.354;20.886;2023-08-20T15:37:18;11.88;;;10.68;;
18206;SDS011;9229;52.354;20.886;2023-08-20T15:42:22;10.50;;;9.57;;
18206;SDS011;9229;52.354;20.886;2023-08-20T15:47:24;10.35;;;9.45;;
18206;SDS011;9229;52.354;20.886;2023-08-20T15:52:26;10.00;;;9.20;;
18206;SDS011;9229;52.354;20.886;2023-08-20T15:57:29;9.98;;;8.98;;
18206;SDS011;9229;52.354;20.886;2023-08-20T16:02:31;10.13;;;9.13;;
18206;SDS011;9229;52.354;20.886;2023-08-20T16:07:33;9.63;;;8.73;;
18206;SDS011;9229;52.354;20.886;2023-08-20T16:12:37;9.40;;;8.52;;
18206;SDS011;9229;52.354;20.886;2023-08-20T16:17:39;8.98;;;8.18;;
18206;SDS011;9229;52.354;20.886;2023-08-20T16:22:41;9.68;;;8.63;;
18206;SDS011;9229;52.354;20.886;2023-08-20T16:27:44;9.45;;;8.65;;
18206;SDS011;9229;52.354;20.886;2023-08-20T16:32:48;13.18;;;8.93;;
18206;SDS011;9229;52.354;20.886;2023-08-20T16:37:50;8.95;;;8.05;;
18206;SDS011;9229;52.354;20.886;2023-08-20T16:42:53;9.23;;;8.32;;
18206;SDS011;9229;52.354;20.886;2023-08-20T16:47:55;8.95;;;8.07;;
18206;SDS011;9229;52.354;20.886;2023-08-20T16:52:57;10.25;;;9.00;;
18206;SDS011;9229;52.354;20.886;2023-08-20T16:58:01;10.05;;;9.15;;
18206;SDS011;9229;52.354;20.886;2023-08-20T17:03:03;10.50;;;8.82;;
18206;SDS011;9229;52.354;20.886;2023-08-20T17:08:07;9.70;;;8.85;;
18206;SDS011;9229;52.354;20.886;2023-08-20T17:13:11;14.65;;;9.70;;
18206;SDS011;9229;52.354;20.886;2023-08-20T17:18:15;12.32;;;9.02;;
18206;SDS011;9229;52.354;20.886;2023-08-20T17:23:17;15.93;;;9.85;;
18206;SDS011;9229;52.354;20.886;2023-08-20T17:28:20;13.75;;;9.75;;
18206;SDS011;9229;52.354;20.886;2023-08-20T17:33:22;24.60;;;9.75;;
18206;SDS011;9229;52.354;20.886;2023-08-20T17:38:25;11.93;;;9.95;;
18206;SDS011;9229;52.354;20.886;2023-08-20T17:43:30;21.25;;;10.95;;
18206;SDS011;9229;52.354;20.886;2023-08-20T17:48:32;10.98;;;9.95;;
18206;SDS011;9229;52.354;20.886;2023-08-20T17:53:34;21.88;;;11.90;;
18206;SDS011;9229;52.354;20.886;2023-08-20T17:58:37;22.83;;;12.43;;
18206;SDS011;9229;52.354;20.886;2023-08-20T18:03:39;23.00;;;11.48;;
18206;SDS011;9229;52.354;20.886;2023-08-20T18:08:41;19.48;;;11.27;;
18206;SDS011;9229;52.354;20.886;2023-08-20T18:13:45;16.17;;;11.23;;
18206;SDS011;9229;52.354;20.886;2023-08-20T18:18:47;16.65;;;11.80;;
18206;SDS011;9229;52.354;20.886;2023-08-20T18:23:49;18.08;;;12.43;;
18206;SDS011;9229;52.354;20.886;2023-08-20T18:28:52;28.48;;;14.07;;
18206;SDS011;9229;52.354;20.886;2023-08-20T18:33:54;33.03;;;15.10;;
18206;SDS011;9229;52.354;20.886;2023-08-20T18:38:57;19.60;;;13.93;;
18206;SDS011;9229;52.354;20.886;2023-08-20T18:44:00;22.60;;;13.02;;
18206;SDS011;9229;52.354;20.886;2023-08-20T18:49:03;21.05;;;13.75;;
18206;SDS011;9229;52.354;20.886;2023-08-20T18:54:06;19.77;;;14.48;;
18206;SDS011;9229;52.354;20.886;2023-08-20T18:59:09;25.05;;;13.18;;
18206;SDS011;9229;52.354;20.886;2023-08-20T19:04:11;22.58;;;13.18;;
18206;SDS011;9229;52.354;20.886;2023-08-20T19:09:13;23.08;;;14.50;;
18206;SDS011;9229;52.354;20.886;2023-08-20T19:14:17;23.13;;;14.82;;
18206;SDS011;9229;52.354;20.886;2023-08-20T19:19:19;17.25;;;13.85;;
18206;SDS011;9229;52.354;20.886;2023-08-20T19:24:21;17.30;;;13.82;;
18206;SDS011;9229;52.354;20.886;2023-08-20T19:29:25;21.27;;;15.60;;
18206;SDS011;9229;52.354;20.886;2023-08-20T19:34:30;20.98;;;15.50;;
18206;SDS011;9229;52.354;20.886;2023-08-20T19:39:33;20.42;;;15.65;;
18206;SDS011;9229;52.354;20.886;2023-08-20T19:44:38;21.67;;;15.10;;
18206;SDS011;9229;52.354;20.886;2023-08-20T19:49:41;21.38;;;15.10;;
18206;SDS011;9229;52.354;20.886;2023-08-20T19:54:43;20.60;;;15.13;;
18206;SDS011;9229;52.354;20.886;2023-08-20T19:59:54;22.05;;;16.40;;
18206;SDS011;9229;52.354;20.886;2023-08-20T20:04:56;27.38;;;15.90;;
18206;SDS011;9229;52.354;20.886;2023-08-20T20:09:58;20.48;;;16.50;;
18206;SDS011;9229;52.354;20.886;2023-08-20T20:15:04;23.15;;;16.80;;
18206;SDS011;9229;52.354;20.886;2023-08-20T20:20:10;26.63;;;16.20;;
18206;SDS011;9229;52.354;20.886;2023-08-20T20:25:12;31.48;;;17.23;;
18206;SDS011;9229;52.354;20.886;2023-08-20T20:30:18;27.88;;;17.20;;
18206;SDS011;9229;52.354;20.886;2023-08-20T20:35:22;19.63;;;16.83;;
18206;SDS011;9229;52.354;20.886;2023-08-20T20:40:24;25.02;;;17.15;;
18206;SDS011;9229;52.354;20.886;2023-08-20T20:45:28;28.23;;;17.35;;
18206;SDS011;9229;52.354;20.886;2023-08-20T20:50:30;22.23;;;17.70;;
18206;SDS011;9229;52.354;20.886;2023-08-20T20:55:32;32.13;;;18.33;;
18206;SDS011;9229;52.354;20.886;2023-08-20T21:00:36;21.02;;;16.80;;
18206;SDS011;9229;52.354;20.886;2023-08-20T21:05:40;23.60;;;15.93;;
18206;SDS011;9229;52.354;20.886;2023-08-20T21:10:43;28.20;;;18.42;;
18206;SDS011;9229;52.354;20.886;2023-08-20T21:15:47;30.45;;;18.35;;
18206;SDS011;9229;52.354;20.886;2023-08-20T21:20:48;27.15;;;17.00;;
18206;SDS011;9229;52.354;20.886;2023-08-20T21:25:51;21.92;;;17.15;;
18206;SDS011;9229;52.354;20.886;2023-08-20T21:30:54;27.90;;;17.77;;
18206;SDS011;9229;52.354;20.886;2023-08-20T21:35:56;28.50;;;18.70;;
18206;SDS011;9229;52.354;20.886;2023-08-20T21:40:59;25.10;;;17.30;;
18206;SDS011;9229;52.354;20.886;2023-08-20T21:46:03;25.27;;;17.83;;
18206;SDS011;9229;52.354;20.886;2023-08-20T21:51:06;27.05;;;17.98;;
18206;SDS011;9229;52.354;20.886;2023-08-20T21:56:09;29.55;;;18.23;;
18206;SDS011;9229;52.354;20.886;2023-08-20T22:01:13;25.10;;;17.08;;
18206;SDS011;9229;52.354;20.886;2023-08-20T22:06:16;26.58;;;17.48;;
18206;SDS011;9229;52.354;20.886;2023-08-20T22:11:18;21.55;;;17.13;;
18206;SDS011;9229;52.354;20.886;2023-08-20T22:16:21;23.52;;;17.30;;
18206;SDS011;9229;52.354;20.886;2023-08-20T22:21:23;23.17;;;18.10;;
18206;SDS011;9229;52.354;20.886;2023-08-20T22:26:26;22.10;;;17.40;;
18206;SDS011;9229;52.354;20.886;2023-08-20T22:31:30;26.60;;;18.45;;
18206;SDS011;9229;52.354;20.886;2023-08-20T22:36:32;21.05;;;17.02;;
18206;SDS011;9229;52.354;20.886;2023-08-20T22:41:34;19.38;;;16.63;;
18206;SDS011;9229;52.354;20.886;2023-08-20T22:46:38;22.35;;;16.98;;
18206;SDS011;9229;52.354;20.886;2023-08-20T22:51:40;20.92;;;16.23;;
18206;SDS011;9229;52.354;20.886;2023-08-20T22:56:43;23.35;;;17.60;;
18206;SDS011;9229;52.354;20.886;2023-08-20T23:01:46;17.75;;;15.32;;
18206;SDS011;9229;52.354;20.886;2023-08-20T23:06:50;20.45;;;17.83;;
18206;SDS011;9229;52.354;20.886;2023-08-20T23:11:52;23.75;;;16.75;;
18206;SDS011;9229;52.354;20.886;2023-08-20T23:16:55;23.10;;;17.52;;
18206;SDS011;9229;52.354;20.886;2023-08-20T23:21:57;19.95;;;16.73;;
18206;SDS011;9229;52.354;20.886;2023-08-20T23:26:59;20.50;;;15.98;;
18206;SDS011;9229;52.354;20.886;2023-08-20T23:32:04;21.90;;;16.63;;
18206;SDS011;9229;52.354;20.886;2023-08-20T23:37:06;21.42;;;16.92;;
18206;SDS011;9229;52.354;20.886;2023-08-20T23:42:08;20.90;;;16.63;;
18206;SDS011;9229;52.354;20.886;2023-08-20T23:47:11;22.58;;;17.38;;
18206;SDS011;9229;52.354;20.886;2023-08-20T23:52:13;24.15;;;18.50;;
18206;SDS011;9229;52.354;20.886;2023-08-20T23:57:15;23.08;;;17.83;;
